^^
Saratoga-Weather Station Historical Data
Daily Summary for April 22, 2020 Units:  Metric    English   Both
Daily Weekly Monthly Yearly Custom
  High: Low: Average:
Temperature: 27.9 °C 13.5 °C 20.8 °C
Dew Point: 11.4 °C 7.1 °C 8.5 °C
Humidity: 68% 28% 48%
Wind Speed: 14.5km/h 0km/h 2.8km/h
Wind Gust: 19.3km/h - -
Wind- - SSW
Pressure: 1022.0 hPa 1016.3 hPa -
Precipitation: 0.0 mm    
Historical Graphs
 
 
Tabular Data for April 22, 2020
Time Temperature Dew Point Pressure Wind Wind Speed Wind Gust Humidity Rainfall Rate (Hourly) solar
00:02 18.2 °C 7.3 °C 1021.3 hPa SSW 1.4 km/h 1.6 km/h 49% 0.0 mm 0 W/m2
00:07 18.1 °C 7.5 °C 1021.3 hPa Calm   3.2 km/h 50% 0.0 mm 0 W/m2
00:12 17.9 °C 7.3 °C 1021.3 hPa Calm   1.6 km/h 50% 0.0 mm 0 W/m2
00:17 17.8 °C 7.5 °C 1021.3 hPa East 3.2 km/h 3.2 km/h 51% 0.0 mm 0 W/m2
00:22 17.7 °C 7.4 °C 1021.3 hPa Calm     51% 0.0 mm 0 W/m2
00:27 17.4 °C 7.2 °C 1021.3 hPa NE 1.4 km/h 4.8 km/h 51% 0.0 mm 0 W/m2
00:32 17.4 °C 7.2 °C 1021.3 hPa NE 1.4 km/h 3.2 km/h 51% 0.0 mm 0 W/m2
00:37 17.3 °C 7.3 °C 1021.3 hPa South 1.4 km/h 4.8 km/h 52% 0.0 mm 0 W/m2
00:42 17.3 °C 7.3 °C 1021.7 hPa Calm     52% 0.0 mm 0 W/m2
00:47 17.1 °C 7.4 °C 1021.3 hPa SSW 1.4 km/h 4.8 km/h 53% 0.0 mm 0 W/m2
00:52 16.9 °C 7.3 °C 1021.7 hPa Calm   3.2 km/h 53% 0.0 mm 0 W/m2
00:57 16.8 °C 7.2 °C 1021.7 hPa WSW 1.4 km/h 4.8 km/h 53% 0.0 mm 0 W/m2
01:02 16.8 °C 7.2 °C 1021.7 hPa Calm   1.6 km/h 53% 0.0 mm 0 W/m2
01:07 16.8 °C 7.2 °C 1021.7 hPa Calm   6.4 km/h 53% 0.0 mm 0 W/m2
01:12 16.7 °C 7.3 °C 1021.7 hPa Calm   1.6 km/h 54% 0.0 mm 0 W/m2
01:17 16.7 °C 7.6 °C 1021.7 hPa SE 1.4 km/h 6.4 km/h 55% 0.0 mm 0 W/m2
01:22 16.6 °C 7.5 °C 1021.7 hPa WSW 4.7 km/h 4.8 km/h 55% 0.0 mm 0 W/m2
01:27 16.3 °C 7.2 °C 1021.7 hPa NW 1.4 km/h 3.2 km/h 55% 0.0 mm 0 W/m2
01:32 16.2 °C 7.4 °C 1021.7 hPa Calm   1.6 km/h 56% 0.0 mm 0 W/m2
01:37 16.1 °C 7.6 °C 1021.7 hPa Calm     57% 0.0 mm 0 W/m2
01:42 15.9 °C 7.4 °C 1021.7 hPa Calm   1.6 km/h 57% 0.0 mm 0 W/m2
01:47 15.7 °C 7.5 °C 1022.0 hPa SSW 1.4 km/h 3.2 km/h 58% 0.0 mm 0 W/m2
01:52 15.5 °C 7.5 °C 1022.0 hPa SSW 1.4 km/h 1.6 km/h 59% 0.0 mm 0 W/m2
01:57 15.3 °C 7.3 °C 1022.0 hPa Calm   1.6 km/h 59% 0.0 mm 0 W/m2
02:03 15.2 °C 7.5 °C 1022.0 hPa Calm   1.6 km/h 60% 0.0 mm 0 W/m2
02:08 15.1 °C 7.4 °C 1022.0 hPa SSW 1.4 km/h 1.6 km/h 60% 0.0 mm 0 W/m2
02:13 15 °C 7.5 °C 1022.0 hPa SSW 1.4 km/h 1.6 km/h 61% 0.0 mm 0 W/m2
02:18 14.8 °C 7.4 °C 1022.0 hPa Calm   1.6 km/h 61% 0.0 mm 0 W/m2
02:23 14.8 °C 7.4 °C 1021.7 hPa WSW 3.2 km/h 3.2 km/h 61% 0.0 mm 0 W/m2
02:28 14.8 °C 7.4 °C 1022.0 hPa West 9.7 km/h 9.7 km/h 61% 0.0 mm 0 W/m2
02:33 15.1 °C 7.4 °C 1021.7 hPa NW 3.2 km/h 3.2 km/h 60% 0.0 mm 0 W/m2
02:38 15.3 °C 7.3 °C 1021.7 hPa West 1.4 km/h 3.2 km/h 59% 0.0 mm 0 W/m2
02:43 15.3 °C 7.3 °C 1021.7 hPa SW 3.2 km/h 4.8 km/h 59% 0.0 mm 0 W/m2
02:48 15.2 °C 7.5 °C 1021.7 hPa WSW 1.4 km/h 1.6 km/h 60% 0.0 mm 0 W/m2
02:53 15.2 °C 7.5 °C 1021.7 hPa SW 4.8 km/h 4.8 km/h 60% 0.0 mm 0 W/m2
02:58 15.1 °C 7.4 °C 1021.7 hPa Calm   4.8 km/h 60% 0.0 mm 0 W/m2
03:03 14.9 °C 7.2 °C 1021.7 hPa SW 1.4 km/h 3.2 km/h 60% 0.0 mm 0 W/m2
03:08 14.9 °C 7.4 °C 1021.7 hPa WSW 1.4 km/h 6.4 km/h 61% 0.0 mm 0 W/m2
03:13 14.8 °C 7.4 °C 1021.7 hPa WSW 1.4 km/h 3.2 km/h 61% 0.0 mm 0 W/m2
03:18 14.8 °C 7.4 °C 1021.7 hPa West 3.2 km/h 4.8 km/h 61% 0.0 mm 0 W/m2
03:23 14.8 °C 7.4 °C 1021.7 hPa West 1.4 km/h 3.2 km/h 61% 0.0 mm 0 W/m2
03:28 14.7 °C 7.3 °C 1021.7 hPa West 1.4 km/h 3.2 km/h 61% 0.0 mm 0 W/m2
03:33 14.8 °C 7.4 °C 1021.7 hPa Calm   1.6 km/h 61% 0.0 mm 0 W/m2
03:38 14.8 °C 7.4 °C 1021.7 hPa Calm   1.6 km/h 61% 0.0 mm 0 W/m2
03:43 14.7 °C 7.5 °C 1021.7 hPa Calm   1.6 km/h 62% 0.0 mm 0 W/m2
03:48 14.6 °C 7.4 °C 1021.7 hPa Calm   3.2 km/h 62% 0.0 mm 0 W/m2
03:53 14.4 °C 7.2 °C 1021.7 hPa West 1.4 km/h 1.6 km/h 62% 0.0 mm 0 W/m2
03:58 14.3 °C 7.4 °C 1021.7 hPa West 1.4 km/h 1.6 km/h 63% 0.0 mm 0 W/m2
04:03 14.3 °C 7.4 °C 1021.7 hPa West 4.7 km/h 4.8 km/h 63% 0.0 mm 0 W/m2
04:08 14.3 °C 7.4 °C 1021.7 hPa Calm   1.6 km/h 63% 0.0 mm 0 W/m2
04:13 14.4 °C 7.4 °C 1021.7 hPa WNW 3.2 km/h 3.2 km/h 63% 0.0 mm 0 W/m2
04:18 14.5 °C 7.3 °C 1021.7 hPa WNW 1.4 km/h 3.2 km/h 62% 0.0 mm 0 W/m2
04:23 14.4 °C 7.2 °C 1021.3 hPa West 1.4 km/h 3.2 km/h 62% 0.0 mm 0 W/m2
04:28 14.4 °C 7.4 °C 1021.3 hPa West 1.4 km/h 3.2 km/h 63% 0.0 mm 0 W/m2
04:33 14.3 °C 7.4 °C 1021.3 hPa South 1.4 km/h 1.6 km/h 63% 0.0 mm 0 W/m2
04:38 14.2 °C 7.3 °C 1021.3 hPa South 1.4 km/h 3.2 km/h 63% 0.0 mm 0 W/m2
04:43 14.1 °C 7.2 °C 1021.3 hPa South 3.2 km/h 3.2 km/h 63% 0.0 mm 0 W/m2
04:48 13.9 °C 7.2 °C 1021.3 hPa Calm   1.6 km/h 64% 0.0 mm 0 W/m2
04:53 13.8 °C 7.1 °C 1021.3 hPa South 1.4 km/h 3.2 km/h 64% 0.0 mm 0 W/m2
04:58 13.7 °C 7.2 °C 1021.3 hPa Calm   3.2 km/h 65% 0.0 mm 0 W/m2
05:03 13.6 °C 7.1 °C 1021.3 hPa Calm   3.2 km/h 65% 0.0 mm 0 W/m2
05:08 13.7 °C 7.2 °C 1021.3 hPa WSW 3.2 km/h 3.2 km/h 65% 0.0 mm 0 W/m2
05:13 13.7 °C 7.2 °C 1021.3 hPa West 3.2 km/h 3.2 km/h 65% 0.0 mm 0 W/m2
05:18 13.9 °C 7.2 °C 1021.3 hPa South 3.2 km/h 6.4 km/h 64% 0.0 mm 0 W/m2
05:23 13.9 °C 7.2 °C 1021.3 hPa Calm   1.6 km/h 64% 0.0 mm 0 W/m2
05:28 13.9 °C 7.4 °C 1021.3 hPa South 1.4 km/h 6.4 km/h 65% 0.0 mm 0 W/m2
05:33 13.8 °C 7.3 °C 1021.3 hPa Calm   1.6 km/h 65% 0.0 mm 0 W/m2
05:38 13.8 °C 7.3 °C 1021.3 hPa West 1.4 km/h 3.2 km/h 65% 0.0 mm 0 W/m2
05:43 13.7 °C 7.5 °C 1021.3 hPa Calm   1.6 km/h 66% 0.0 mm 0 W/m2
05:49 13.6 °C 7.4 °C 1021.3 hPa Calm   3.2 km/h 66% 0.0 mm 0 W/m2
05:54 13.6 °C 7.4 °C 1021.3 hPa Calm   3.2 km/h 66% 0.0 mm 0 W/m2
05:59 13.5 °C 7.5 °C 1021.3 hPa NW 3.2 km/h 6.4 km/h 67% 0.0 mm 5 W/m2
06:04 13.6 °C 7.6 °C 1021.3 hPa West 3.2 km/h 6.4 km/h 67% 0.0 mm 7 W/m2
06:09 13.6 °C 7.6 °C 1021.3 hPa WNW 4.7 km/h 4.8 km/h 67% 0.0 mm 9 W/m2
06:14 13.6 °C 7.6 °C 1021.3 hPa West 1.4 km/h 4.8 km/h 67% 0.0 mm 11 W/m2
06:19 13.7 °C 7.7 °C 1021.3 hPa WNW 4.7 km/h 4.8 km/h 67% 0.0 mm 12 W/m2
06:24 13.7 °C 7.7 °C 1021.3 hPa WNW 1.4 km/h 3.2 km/h 67% 0.0 mm 14 W/m2
06:29 13.7 °C 7.9 °C 1021.3 hPa Calm   1.6 km/h 68% 0.0 mm 18 W/m2
06:34 13.7 °C 7.9 °C 1021.3 hPa WNW 1.4 km/h 3.2 km/h 68% 0.0 mm 19 W/m2
06:39 13.7 °C 7.9 °C 1021.3 hPa NNW 1.4 km/h 3.2 km/h 68% 0.0 mm 21 W/m2
06:44 13.7 °C 7.9 °C 1021.3 hPa NNW 1.4 km/h 4.8 km/h 68% 0.0 mm 23 W/m2
06:49 13.8 °C 8 °C 1021.3 hPa WSW 4.7 km/h 6.4 km/h 68% 0.0 mm 23 W/m2
06:54 13.8 °C 8 °C 1021.3 hPa West 1.4 km/h 3.2 km/h 68% 0.0 mm 25 W/m2
06:59 13.8 °C 8 °C 1021.3 hPa North 3.2 km/h 3.2 km/h 68% 0.0 mm 26 W/m2
07:04 13.8 °C 8 °C 1021.3 hPa SSW 3.2 km/h 3.2 km/h 68% 0.0 mm 28 W/m2
07:09 13.8 °C 8 °C 1021.3 hPa NE 4.7 km/h 6.4 km/h 68% 0.0 mm 28 W/m2
07:14 13.9 °C 8.1 °C 1021.3 hPa West 3.2 km/h 4.8 km/h 68% 0.0 mm 30 W/m2
07:19 14 °C 8.2 °C 1021.3 hPa NNE 3.2 km/h 6.4 km/h 68% 0.0 mm 32 W/m2
07:24 14.1 °C 8.3 °C 1021.3 hPa NE 1.4 km/h 3.2 km/h 68% 0.0 mm 32 W/m2
07:29 14.1 °C 8.3 °C 1021.3 hPa NNE 1.4 km/h 11.3 km/h 68% 0.0 mm 33 W/m2
07:34 14.2 °C 8.4 °C 1021.3 hPa NW 1.4 km/h 3.2 km/h 68% 0.0 mm 33 W/m2
07:39 14.2 °C 8.4 °C 1021.3 hPa North 6.4 km/h 6.4 km/h 68% 0.0 mm 35 W/m2
07:44 14.3 °C 8.5 °C 1021.3 hPa South 1.4 km/h 6.4 km/h 68% 0.0 mm 35 W/m2
07:49 14.4 °C 8.6 °C 1021.3 hPa WSW 1.4 km/h 4.8 km/h 68% 0.0 mm 37 W/m2
07:54 14.4 °C 8.6 °C 1021.3 hPa North 6.4 km/h 6.4 km/h 68% 0.0 mm 44 W/m2
07:59 14.6 °C 8.8 °C 1021.3 hPa Calm   1.6 km/h 68% 0.0 mm 214 W/m2
08:04 14.8 °C 9 °C 1021.3 hPa Calm   3.2 km/h 68% 0.0 mm 234 W/m2
08:09 15.1 °C 9 °C 1021.3 hPa NE 1.4 km/h 3.2 km/h 67% 0.0 mm 250 W/m2
08:14 15.3 °C 9 °C 1021.3 hPa NNW 4.7 km/h 4.8 km/h 66% 0.0 mm 262 W/m2
08:19 15.6 °C 9 °C 1021.3 hPa ENE 1.4 km/h 3.2 km/h 65% 0.0 mm 278 W/m2
08:24 15.8 °C 9.2 °C 1021.3 hPa Calm   6.4 km/h 65% 0.0 mm 269 W/m2
08:29 16 °C 9.2 °C 1021.3 hPa NNE 1.4 km/h 8 km/h 64% 0.0 mm 165 W/m2
08:34 16.4 °C 9.3 °C 1021.3 hPa NE 1.4 km/h 6.4 km/h 63% 0.0 mm 56 W/m2
08:39 16.5 °C 9.2 °C 1021.3 hPa Calm   8 km/h 62% 0.0 mm 47 W/m2
08:44 16.6 °C 9.5 °C 1021.3 hPa NE 3.2 km/h 4.8 km/h 63% 0.0 mm 47 W/m2
08:49 16.8 °C 9.5 °C 1021.3 hPa SE 3.2 km/h 4.8 km/h 62% 0.0 mm 46 W/m2
08:54 17.1 °C 9.8 °C 1021.0 hPa ESE 3.2 km/h 3.2 km/h 62% 0.0 mm 47 W/m2
08:59 17.3 °C 9.7 °C 1021.0 hPa NE 3.2 km/h 4.8 km/h 61% 0.0 mm 47 W/m2
09:04 17.6 °C 9.7 °C 1021.3 hPa Calm   3.2 km/h 60% 0.0 mm 49 W/m2
09:09 17.7 °C 9.8 °C 1021.3 hPa NNW 3.2 km/h 11.3 km/h 60% 0.0 mm 51 W/m2
09:14 17.7 °C 9.6 °C 1021.3 hPa NNW 1.4 km/h 3.2 km/h 59% 0.0 mm 56 W/m2
09:19 17.7 °C 10.1 °C 1021.3 hPa North 1.4 km/h 9.7 km/h 61% 0.0 mm 234 W/m2
09:24 17.9 °C 9.8 °C 1021.0 hPa East 1.4 km/h 6.4 km/h 59% 0.0 mm 427 W/m2
09:29 18.3 °C 10.1 °C 1021.0 hPa SE 1.4 km/h 4.8 km/h 59% 0.0 mm 466 W/m2
09:34 18.5 °C 10.1 °C 1021.0 hPa ESE 1.4 km/h 3.2 km/h 58% 0.0 mm 483 W/m2
09:39 18.8 °C 10.1 °C 1021.0 hPa ESE 1.4 km/h 3.2 km/h 57% 0.0 mm 510 W/m2
09:44 19 °C 10 °C 1021.0 hPa ENE 3.2 km/h 6.4 km/h 56% 0.0 mm 503 W/m2
09:49 19.2 °C 9.9 °C 1021.0 hPa ENE 3.2 km/h 11.3 km/h 55% 0.0 mm 534 W/m2
09:54 19.5 °C 9.9 °C 1021.0 hPa ESE 1.4 km/h 9.7 km/h 54% 0.0 mm 482 W/m2
09:59 19.7 °C 9.6 °C 1021.0 hPa ENE 1.4 km/h 11.3 km/h 52% 0.0 mm 519 W/m2
10:04 19.7 °C 9.6 °C 1021.0 hPa ESE 6.4 km/h 8 km/h 52% 0.0 mm 121 W/m2
10:09 19.9 °C 9.8 °C 1021.0 hPa SSE 4.7 km/h 9.7 km/h 52% 0.0 mm 121 W/m2
10:14 19.9 °C 9.8 °C 1021.0 hPa ESE 1.4 km/h 4.8 km/h 52% 0.0 mm 527 W/m2
10:19 20.1 °C 9.6 °C 1020.7 hPa ENE 1.4 km/h 6.4 km/h 51% 0.0 mm 538 W/m2
10:24 20.2 °C 9.7 °C 1020.7 hPa NE 3.2 km/h 11.3 km/h 51% 0.0 mm 603 W/m2
10:29 20.3 °C 9.8 °C 1020.7 hPa NE 1.4 km/h 1.6 km/h 51% 0.0 mm 550 W/m2
10:34 20.8 °C 9.7 °C 1020.7 hPa NE 7.9 km/h 11.3 km/h 49% 0.0 mm 603 W/m2
10:39 21.1 °C 9.7 °C 1020.7 hPa NW 1.4 km/h 11.3 km/h 48% 0.0 mm 652 W/m2
10:44 20.8 °C 9.4 °C 1020.7 hPa Calm   8 km/h 48% 0.0 mm 638 W/m2
10:49 20.9 °C 9.5 °C 1020.7 hPa East 1.4 km/h 12.9 km/h 48% 0.0 mm 673 W/m2
10:54 21 °C 9.9 °C 1020.7 hPa ENE 1.4 km/h 9.7 km/h 49% 0.0 mm 666 W/m2
10:59 21.1 °C 9.3 °C 1020.7 hPa ENE 6.4 km/h 12.9 km/h 47% 0.0 mm 654 W/m2
11:04 21.2 °C 10.1 °C 1020.7 hPa ESE 1.4 km/h 4.8 km/h 49% 0.0 mm 689 W/m2
11:09 21.4 °C 9.6 °C 1020.7 hPa NNE 3.2 km/h 4.8 km/h 47% 0.0 mm 696 W/m2
11:14 21.6 °C 9.5 °C 1020.7 hPa ESE 4.7 km/h 6.4 km/h 46% 0.0 mm 705 W/m2
11:19 21.7 °C 9.9 °C 1020.7 hPa Calm   8 km/h 47% 0.0 mm 717 W/m2
11:24 21.9 °C 9.8 °C 1020.3 hPa Calm   1.6 km/h 46% 0.0 mm 735 W/m2
11:29 22.1 °C 9.6 °C 1020.3 hPa ENE 9.7 km/h 14.5 km/h 45% 0.0 mm 738 W/m2
11:34 22.3 °C 9.8 °C 1020.3 hPa SE 3.2 km/h 4.8 km/h 45% 0.0 mm 763 W/m2
11:39 22.4 °C 9.2 °C 1020.3 hPa ESE 4.7 km/h 14.5 km/h 43% 0.0 mm 770 W/m2
11:44 22.6 °C 9 °C 1020.3 hPa ENE 4.7 km/h 9.7 km/h 42% 0.0 mm 782 W/m2
11:49 22.9 °C 8.9 °C 1020.3 hPa North 3.2 km/h 4.8 km/h 41% 0.0 mm 779 W/m2
11:54 23.1 °C 9.1 °C 1020.0 hPa SSW 3.2 km/h 9.7 km/h 41% 0.0 mm 796 W/m2
11:59 23.4 °C 9.4 °C 1020.0 hPa ESE 7.9 km/h 9.7 km/h 41% 0.0 mm 805 W/m2
12:04 23.5 °C 9.1 °C 1020.0 hPa ENE 4.7 km/h 6.4 km/h 40% 0.0 mm 803 W/m2
12:09 23.6 °C 8.8 °C 1020.0 hPa NNW 1.4 km/h 4.8 km/h 39% 0.0 mm 821 W/m2
12:14 23.6 °C 8.4 °C 1020.0 hPa Calm   6.4 km/h 38% 0.0 mm 816 W/m2
12:19 23.8 °C 9 °C 1020.0 hPa ESE 6.4 km/h 6.4 km/h 39% 0.0 mm 765 W/m2
12:24 24.1 °C 9.3 °C 1020.0 hPa NNE 3.2 km/h 6.4 km/h 39% 0.0 mm 817 W/m2
12:29 24.1 °C 8.9 °C 1020.0 hPa NE 6.4 km/h 11.3 km/h 38% 0.0 mm 823 W/m2
12:35 24.1 °C 8.9 °C 1020.0 hPa NNE 3.2 km/h 6.4 km/h 38% 0.0 mm 798 W/m2
12:40 24.2 °C 9 °C 1019.6 hPa NE 7.9 km/h 9.7 km/h 38% 0.0 mm 846 W/m2
12:45 24.5 °C 8.9 °C 1019.6 hPa NNW 3.2 km/h 4.8 km/h 37% 0.0 mm 819 W/m2
12:50 24.6 °C 8.9 °C 1019.6 hPa SSE 3.2 km/h 3.2 km/h 37% 0.0 mm 838 W/m2
12:55 24.9 °C 9.6 °C 1019.6 hPa NW 4.7 km/h 9.7 km/h 38% 0.0 mm 877 W/m2
13:00 25.3 °C 8.7 °C 1019.6 hPa ESE 3.2 km/h 12.9 km/h 35% 0.0 mm 905 W/m2
13:05 25.3 °C 8.7 °C 1019.3 hPa NE 4.7 km/h 4.8 km/h 35% 0.0 mm 891 W/m2
13:10 25.2 °C 8.6 °C 1019.3 hPa SE 3.2 km/h 12.9 km/h 35% 0.0 mm 904 W/m2
13:15 25.3 °C 8.7 °C 1019.3 hPa ENE 3.2 km/h 9.7 km/h 35% 0.0 mm 854 W/m2
13:20 25.4 °C 8.8 °C 1019.3 hPa ENE 7.9 km/h 9.7 km/h 35% 0.0 mm 803 W/m2
13:25 25.5 °C 8.9 °C 1019.3 hPa ENE 4.7 km/h 4.8 km/h 35% 0.0 mm 872 W/m2
13:30 25.3 °C 8.7 °C 1019.0 hPa WNW 3.2 km/h 9.7 km/h 35% 0.0 mm 888 W/m2
13:35 25.4 °C 9.2 °C 1019.0 hPa Calm   1.6 km/h 36% 0.0 mm 879 W/m2
13:40 25.6 °C 8.6 °C 1019.0 hPa WSW 6.4 km/h 8 km/h 34% 0.0 mm 881 W/m2
13:45 25.5 °C 8.5 °C 1019.0 hPa WNW 3.2 km/h 4.8 km/h 34% 0.0 mm 860 W/m2
13:50 25.5 °C 8.9 °C 1019.0 hPa NNW 4.7 km/h 4.8 km/h 35% 0.0 mm 875 W/m2
13:55 25.6 °C 8.6 °C 1019.0 hPa NW 1.4 km/h 6.4 km/h 34% 0.0 mm 891 W/m2
14:00 25.5 °C 8 °C 1019.0 hPa NW 1.4 km/h 11.3 km/h 33% 0.0 mm 875 W/m2
14:05 25.7 °C 8.7 °C 1019.0 hPa NNW 6.4 km/h 6.4 km/h 34% 0.0 mm 904 W/m2
14:10 25.7 °C 8.2 °C 1019.0 hPa WNW 7.9 km/h 11.3 km/h 33% 0.0 mm 898 W/m2
14:15 25.6 °C 8.1 °C 1018.6 hPa West 3.2 km/h 6.4 km/h 33% 0.0 mm 888 W/m2
14:20 25.7 °C 8.2 °C 1018.6 hPa West 4.7 km/h 6.4 km/h 33% 0.0 mm 721 W/m2
14:25 25.7 °C 7.8 °C 1018.6 hPa West 3.2 km/h 11.3 km/h 32% 0.0 mm 788 W/m2
14:30 25.6 °C 7.7 °C 1018.6 hPa WSW 6.4 km/h 8 km/h 32% 0.0 mm 879 W/m2
14:35 25.8 °C 8.7 °C 1018.6 hPa ESE 3.2 km/h 11.3 km/h 34% 0.0 mm 868 W/m2
14:40 26.1 °C 8.1 °C 1018.6 hPa ENE 1.4 km/h 3.2 km/h 32% 0.0 mm 819 W/m2
14:45 26.3 °C 8.3 °C 1018.6 hPa NW 1.4 km/h 8 km/h 32% 0.0 mm 882 W/m2
14:50 26.6 °C 8.5 °C 1018.6 hPa ENE 4.7 km/h 9.7 km/h 32% 0.0 mm 905 W/m2
14:55 27 °C 8.9 °C 1018.6 hPa NNW 4.7 km/h 9.7 km/h 32% 0.0 mm 886 W/m2
15:00 26.8 °C 8.7 °C 1018.3 hPa NE 6.4 km/h 11.3 km/h 32% 0.0 mm 847 W/m2
15:05 26.9 °C 8.8 °C 1018.3 hPa West 4.7 km/h 8 km/h 32% 0.0 mm 745 W/m2
15:10 26.9 °C 8.3 °C 1018.3 hPa NW 4.7 km/h 4.8 km/h 31% 0.0 mm 698 W/m2
15:15 26.8 °C 8.3 °C 1018.3 hPa WSW 7.9 km/h 8 km/h 31% 0.0 mm 701 W/m2
15:20 26.6 °C 8.5 °C 1018.3 hPa WNW 3.2 km/h 4.8 km/h 32% 0.0 mm 694 W/m2
15:25 26.6 °C 8.5 °C 1018.0 hPa ESE 6.4 km/h 11.3 km/h 32% 0.0 mm 789 W/m2
15:30 26.7 °C 8.2 °C 1018.0 hPa East 3.2 km/h 11.3 km/h 31% 0.0 mm 849 W/m2
15:35 27 °C 8.9 °C 1018.0 hPa ENE 3.2 km/h 6.4 km/h 32% 0.0 mm 847 W/m2
15:40 27.4 °C 8.8 °C 1018.0 hPa North 1.4 km/h 4.8 km/h 31% 0.0 mm 833 W/m2
15:45 27.8 °C 9.1 °C 1018.0 hPa North 1.4 km/h 8 km/h 31% 0.0 mm 842 W/m2
15:50 27.9 °C 9.2 °C 1018.0 hPa NE 4.7 km/h 12.9 km/h 31% 0.0 mm 654 W/m2
15:55 27.7 °C 8.5 °C 1017.6 hPa NE 7.9 km/h 14.5 km/h 30% 0.0 mm 740 W/m2
16:00 27.7 °C 9 °C 1017.6 hPa ENE 7.9 km/h 8 km/h 31% 0.0 mm 763 W/m2
16:05 27.7 °C 8 °C 1017.6 hPa North 4.7 km/h 12.9 km/h 29% 0.0 mm 798 W/m2
16:10 27.3 °C 8.2 °C 1017.6 hPa SSE 3.2 km/h 3.2 km/h 30% 0.0 mm 791 W/m2
16:16 27.4 °C 8.3 °C 1017.6 hPa ESE 1.4 km/h 8 km/h 30% 0.0 mm 714 W/m2
16:21 27.5 °C 9.3 °C 1017.3 hPa ENE 3.2 km/h 4.8 km/h 32% 0.0 mm 705 W/m2
16:26 27.4 °C 8.3 °C 1017.3 hPa NNE 3.2 km/h 14.5 km/h 30% 0.0 mm 476 W/m2
16:31 27.3 °C 8.7 °C 1017.3 hPa WNW 4.7 km/h 6.4 km/h 31% 0.0 mm 722 W/m2
16:36 27.6 °C 8.5 °C 1017.3 hPa NW 4.7 km/h 14.5 km/h 30% 0.0 mm 687 W/m2
16:41 27.6 °C 8.9 °C 1017.3 hPa NW 4.7 km/h 6.4 km/h 31% 0.0 mm 599 W/m2
16:46 27.5 °C 8.4 °C 1017.3 hPa NNW 4.7 km/h 6.4 km/h 30% 0.0 mm 592 W/m2
16:51 27.6 °C 8.5 °C 1017.3 hPa North 3.2 km/h 9.7 km/h 30% 0.0 mm 580 W/m2
16:56 27.6 °C 8.5 °C 1017.3 hPa Calm   4.8 km/h 30% 0.0 mm 496 W/m2
17:01 27.7 °C 8.5 °C 1016.9 hPa Calm   4.8 km/h 30% 0.0 mm 436 W/m2
17:06 27.6 °C 8 °C 1016.9 hPa NE 1.4 km/h 3.2 km/h 29% 0.0 mm 578 W/m2
17:11 27.6 °C 8.5 °C 1016.9 hPa NW 1.4 km/h 8 km/h 30% 0.0 mm 598 W/m2
17:16 27.7 °C 8.5 °C 1016.9 hPa ESE 3.2 km/h 4.8 km/h 30% 0.0 mm 615 W/m2
17:21 27.7 °C 8.5 °C 1016.9 hPa NNW 6.4 km/h 19.3 km/h 30% 0.0 mm 626 W/m2
17:26 27.7 °C 8 °C 1016.9 hPa North 6.4 km/h 8 km/h 29% 0.0 mm 547 W/m2
17:31 27.5 °C 8.4 °C 1016.9 hPa NW 3.2 km/h 16.1 km/h 30% 0.0 mm 503 W/m2
17:36 27.3 °C 8.7 °C 1016.9 hPa ENE 1.4 km/h 3.2 km/h 31% 0.0 mm 234 W/m2
17:41 27.1 °C 8 °C 1016.9 hPa WNW 3.2 km/h 11.3 km/h 30% 0.0 mm 396 W/m2
17:46 27.2 °C 8.6 °C 1016.9 hPa SSW 1.4 km/h 4.8 km/h 31% 0.0 mm 605 W/m2
17:51 27.6 °C 8.5 °C 1016.6 hPa East 3.2 km/h 8 km/h 30% 0.0 mm 577 W/m2
17:56 27.9 °C 8.7 °C 1016.6 hPa ENE 7.9 km/h 8 km/h 30% 0.0 mm 471 W/m2
18:01 27.8 °C 8.1 °C 1016.6 hPa North 3.2 km/h 4.8 km/h 29% 0.0 mm 339 W/m2
18:06 27.7 °C 8 °C 1016.6 hPa ENE 1.4 km/h 1.6 km/h 29% 0.0 mm 534 W/m2
18:11 27.8 °C 8.1 °C 1016.6 hPa ENE 4.7 km/h 8 km/h 29% 0.0 mm 315 W/m2
18:16 27.7 °C 8 °C 1016.3 hPa ENE 1.4 km/h 8 km/h 29% 0.0 mm 343 W/m2
18:21 27.6 °C 8 °C 1016.3 hPa ENE 6.4 km/h 9.7 km/h 29% 0.0 mm 499 W/m2
18:26 27.6 °C 8 °C 1016.3 hPa ENE 13 km/h 14.5 km/h 29% 0.0 mm 452 W/m2
18:31 27.6 °C 8 °C 1016.3 hPa North 6.4 km/h 6.4 km/h 29% 0.0 mm 438 W/m2
18:36 27.4 °C 7.8 °C 1016.3 hPa NNW 1.4 km/h 6.4 km/h 29% 0.0 mm 427 W/m2
18:41 27.4 °C 7.8 °C 1016.3 hPa NNW 6.4 km/h 9.7 km/h 29% 0.0 mm 383 W/m2
18:46 27.6 °C 8 °C 1016.3 hPa NNW 3.2 km/h 6.4 km/h 29% 0.0 mm 348 W/m2
18:51 27.7 °C 8 °C 1016.3 hPa WNW 3.2 km/h 9.7 km/h 29% 0.0 mm 311 W/m2
18:56 27.7 °C 7.5 °C 1016.3 hPa SW 1.4 km/h 4.8 km/h 28% 0.0 mm 290 W/m2
19:01 27.6 °C 8 °C 1016.3 hPa NNW 1.4 km/h 4.8 km/h 29% 0.0 mm 272 W/m2
19:06 27.6 °C 7.4 °C 1016.3 hPa ESE 4.7 km/h 4.8 km/h 28% 0.0 mm 244 W/m2
19:11 27.5 °C 7.9 °C 1016.3 hPa NE 3.2 km/h 8 km/h 29% 0.0 mm 227 W/m2
19:16 27.4 °C 7.3 °C 1016.3 hPa ENE 4.7 km/h 6.4 km/h 28% 0.0 mm 220 W/m2
19:21 27.3 °C 7.2 °C 1016.3 hPa ENE 7.9 km/h 8 km/h 28% 0.0 mm 223 W/m2
19:26 27.3 °C 7.7 °C 1016.3 hPa WNW 3.2 km/h 6.4 km/h 29% 0.0 mm 237 W/m2
19:31 27.2 °C 7.6 °C 1016.3 hPa WNW 4.7 km/h 6.4 km/h 29% 0.0 mm 246 W/m2
19:36 27.1 °C 7.5 °C 1016.3 hPa NE 1.4 km/h 8 km/h 29% 0.0 mm 241 W/m2
19:41 27.1 °C 7.5 °C 1016.3 hPa NNW 4.7 km/h 6.4 km/h 29% 0.0 mm 229 W/m2
19:46 27.1 °C 8 °C 1016.3 hPa NW 3.2 km/h 4.8 km/h 30% 0.0 mm 214 W/m2
19:51 27.1 °C 8 °C 1016.3 hPa ENE 3.2 km/h 3.2 km/h 30% 0.0 mm 192 W/m2
19:56 27.1 °C 8 °C 1016.3 hPa Calm   3.2 km/h 30% 0.0 mm 165 W/m2
20:01 27.2 °C 7.6 °C 1016.3 hPa NNW 3.2 km/h 6.4 km/h 29% 0.0 mm 137 W/m2
20:06 26.9 °C 7.4 °C 1016.3 hPa WNW 1.4 km/h 4.8 km/h 29% 0.0 mm 127 W/m2
20:11 26.7 °C 8.2 °C 1016.3 hPa ESE 3.2 km/h 4.8 km/h 31% 0.0 mm 123 W/m2
20:16 26.6 °C 8.1 °C 1016.3 hPa NW 3.2 km/h 6.4 km/h 31% 0.0 mm 118 W/m2
20:21 26.4 °C 7.9 °C 1016.3 hPa WNW 1.4 km/h 3.2 km/h 31% 0.0 mm 104 W/m2
20:26 26.2 °C 7.7 °C 1016.3 hPa NNW 1.4 km/h 6.4 km/h 31% 0.0 mm 93 W/m2
20:31 26 °C 8 °C 1016.3 hPa NE 1.4 km/h 4.8 km/h 32% 0.0 mm 79 W/m2
20:36 25.7 °C 8.2 °C 1016.3 hPa NW 3.2 km/h 6.4 km/h 33% 0.0 mm 70 W/m2
20:41 25.5 °C 8 °C 1016.3 hPa NNW 3.2 km/h 4.8 km/h 33% 0.0 mm 51 W/m2
20:46 25.4 °C 8.4 °C 1016.3 hPa NNW 1.4 km/h 1.6 km/h 34% 0.0 mm 47 W/m2
20:51 25.3 °C 8.3 °C 1016.3 hPa Calm   3.2 km/h 34% 0.0 mm 33 W/m2
20:56 25.1 °C 8.1 °C 1016.3 hPa WNW 1.4 km/h 4.8 km/h 34% 0.0 mm 32 W/m2
21:01 25 °C 8.5 °C 1016.3 hPa NW 1.4 km/h 3.2 km/h 35% 0.0 mm 26 W/m2
21:06 24.8 °C 8.7 °C 1016.6 hPa NW 1.4 km/h 1.6 km/h 36% 0.0 mm 19 W/m2
21:11 24.4 °C 8.8 °C 1016.3 hPa WNW 1.4 km/h 3.2 km/h 37% 0.0 mm 12 W/m2
21:16 23.9 °C 9.1 °C 1016.6 hPa Calm   1.6 km/h 39% 0.0 mm 11 W/m2
21:21 23.4 °C 9 °C 1016.6 hPa Calm   3.2 km/h 40% 0.0 mm 7 W/m2
21:26 23 °C 8.7 °C 1016.6 hPa WNW 1.4 km/h 1.6 km/h 40% 0.0 mm 5 W/m2
21:32 22.7 °C 8.8 °C 1016.6 hPa WSW 3.2 km/h 4.8 km/h 41% 0.0 mm 0 W/m2
21:37 22.3 °C 8.8 °C 1016.6 hPa West 3.2 km/h 6.4 km/h 42% 0.0 mm 0 W/m2
21:42 22.2 °C 9 °C 1016.9 hPa WNW 1.4 km/h 4.8 km/h 43% 0.0 mm 0 W/m2
21:47 21.9 °C 9.1 °C 1016.9 hPa West 4.7 km/h 6.4 km/h 44% 0.0 mm 0 W/m2
21:52 21.7 °C 9.2 °C 1016.9 hPa West 3.2 km/h 3.2 km/h 45% 0.0 mm 0 W/m2
21:57 21.6 °C 9.5 °C 1016.9 hPa West 4.7 km/h 6.4 km/h 46% 0.0 mm 0 W/m2
22:02 21.5 °C 9.7 °C 1016.9 hPa NW 4.7 km/h 11.3 km/h 47% 0.0 mm 0 W/m2
22:07 21.6 °C 10.1 °C 1016.9 hPa North 6.4 km/h 14.5 km/h 48% 0.0 mm 0 W/m2
22:12 21.7 °C 10.2 °C 1016.9 hPa NW 3.2 km/h 8 km/h 48% 0.0 mm 0 W/m2
22:17 21.7 °C 10.5 °C 1016.9 hPa WNW 14.5 km/h 14.5 km/h 49% 0.0 mm 0 W/m2
22:22 21.6 °C 10.4 °C 1016.9 hPa West 4.7 km/h 8 km/h 49% 0.0 mm 0 W/m2
22:27 21.5 °C 10.6 °C 1016.9 hPa NNW 3.2 km/h 16.1 km/h 50% 0.0 mm 0 W/m2
22:32 21.4 °C 10.5 °C 1016.9 hPa WNW 3.2 km/h 8 km/h 50% 0.0 mm 0 W/m2
22:37 21.4 °C 10.8 °C 1016.9 hPa NW 1.4 km/h 12.9 km/h 51% 0.0 mm 0 W/m2
22:42 21.3 °C 11 °C 1016.9 hPa West 3.2 km/h 6.4 km/h 52% 0.0 mm 0 W/m2
22:47 21.2 °C 11 °C 1016.9 hPa West 4.7 km/h 6.4 km/h 52% 0.0 mm 0 W/m2
22:52 21.1 °C 11.1 °C 1016.9 hPa NW 4.7 km/h 11.3 km/h 53% 0.0 mm 0 W/m2
22:57 20.9 °C 11 °C 1016.9 hPa WSW 6.4 km/h 6.4 km/h 53% 0.0 mm 0 W/m2
23:02 20.8 °C 11.2 °C 1016.9 hPa WNW 4.7 km/h 11.3 km/h 54% 0.0 mm 0 W/m2
23:07 20.7 °C 11.1 °C 1017.3 hPa WNW 3.2 km/h 6.4 km/h 54% 0.0 mm 0 W/m2
23:12 20.6 °C 11.2 °C 1017.3 hPa WNW 3.2 km/h 4.8 km/h 55% 0.0 mm 0 W/m2
23:17 20.4 °C 11.3 °C 1017.3 hPa Calm   6.4 km/h 56% 0.0 mm 0 W/m2
23:22 20.3 °C 11.2 °C 1017.3 hPa NNW 1.4 km/h 6.4 km/h 56% 0.0 mm 0 W/m2
23:27 20.3 °C 11.2 °C 1017.3 hPa NW 1.4 km/h 6.4 km/h 56% 0.0 mm 0 W/m2
23:32 20.3 °C 11.2 °C 1017.3 hPa North 4.7 km/h 14.5 km/h 56% 0.0 mm 0 W/m2
23:37 20.2 °C 11.4 °C 1017.3 hPa NW 3.2 km/h 4.8 km/h 57% 0.0 mm 0 W/m2
23:42 20.1 °C 11.3 °C 1017.3 hPa Calm   6.4 km/h 57% 0.0 mm 0 W/m2
23:47 19.9 °C 11.1 °C 1017.3 hPa NNW 3.2 km/h 11.3 km/h 57% 0.0 mm 0 W/m2
23:57 19.7 °C 11.2 °C 1017.6 hPa NNW 3.2 km/h 6.4 km/h 58% 0.0 mm 0 W/m2
Juneau County Weather
Compliments of Weather Underground - 4 mb